sensor_id;sensor_type;location;lat;lon;timestamp;pressure;altitude;pressure_sealevel;temperature;humidity
43683;BME280;29285;52.128;21.060;2022-11-15T00:01:26;100772.16;;;7.29;88.25
43683;BME280;29285;52.128;21.060;2022-11-15T00:06:28;100762.78;;;7.50;88.57
43683;BME280;29285;52.128;21.060;2022-11-15T00:11:29;100763.23;;;7.59;88.76
43683;BME280;29285;52.128;21.060;2022-11-15T00:16:30;100759.82;;;7.71;88.96
43683;BME280;29285;52.128;21.060;2022-11-15T00:21:32;100747.27;;;7.63;88.90
43683;BME280;29285;52.128;21.060;2022-11-15T00:26:33;100741.67;;;7.74;88.97
43683;BME280;29285;52.128;21.060;2022-11-15T00:31:34;100737.80;;;7.71;89.01
43683;BME280;29285;52.128;21.060;2022-11-15T00:36:35;100726.16;;;7.79;89.08
43683;BME280;29285;52.128;21.060;2022-11-15T00:41:36;100717.93;;;7.79;89.10
43683;BME280;29285;52.128;21.060;2022-11-15T00:46:37;100712.30;;;7.63;88.97
43683;BME280;29285;52.128;21.060;2022-11-15T00:51:39;100709.66;;;7.46;88.65
43683;BME280;29285;52.128;21.060;2022-11-15T00:56:40;100704.52;;;7.57;88.78
43683;BME280;29285;52.128;21.060;2022-11-15T01:01:41;100689.84;;;7.65;89.00
43683;BME280;29285;52.128;21.060;2022-11-15T01:06:43;100683.37;;;7.66;89.10
43683;BME280;29285;52.128;21.060;2022-11-15T01:11:44;100673.44;;;7.50;88.91
43683;BME280;29285;52.128;21.060;2022-11-15T01:16:45;100662.22;;;7.65;89.04
43683;BME280;29285;52.128;21.060;2022-11-15T01:21:49;100659.66;;;7.78;89.23
43683;BME280;29285;52.128;21.060;2022-11-15T01:26:50;100658.37;;;7.86;89.41
43683;BME280;29285;52.128;21.060;2022-11-15T01:31:53;100652.73;;;7.88;89.45
43683;BME280;29285;52.128;21.060;2022-11-15T01:36:55;100633.75;;;7.86;89.43
43683;BME280;29285;52.128;21.060;2022-11-15T01:41:56;100624.23;;;7.88;89.41
43683;BME280;29285;52.128;21.060;2022-11-15T01:46:58;100615.59;;;7.89;89.42
43683;BME280;29285;52.128;21.060;2022-11-15T01:52:03;100633.72;;;7.58;89.09
43683;BME280;29285;52.128;21.060;2022-11-15T01:57:09;100631.45;;;7.04;88.40
43683;BME280;29285;52.128;21.060;2022-11-15T02:02:12;100621.88;;;6.80;88.08
43683;BME280;29285;52.128;21.060;2022-11-15T02:07:19;100614.05;;;6.64;87.99
43683;BME280;29285;52.128;21.060;2022-11-15T02:12:22;100610.17;;;6.64;88.13
43683;BME280;29285;52.128;21.060;2022-11-15T02:17:42;100610.09;;;6.52;88.22
43683;BME280;29285;52.128;21.060;2022-11-15T02:34:49;100589.95;;;6.78;89.08
43683;BME280;29285;52.128;21.060;2022-11-15T02:44:45;100581.78;;;6.80;89.43
43683;BME280;29285;52.128;21.060;2022-11-15T02:49:49;100577.07;;;6.90;89.56
43683;BME280;29285;52.128;21.060;2022-11-15T02:54:57;100577.11;;;7.10;89.89
43683;BME280;29285;52.128;21.060;2022-11-15T03:00:06;100574.98;;;7.24;90.17
43683;BME280;29285;52.128;21.060;2022-11-15T03:11:08;100557.75;;;7.40;90.41
43683;BME280;29285;52.128;21.060;2022-11-15T03:17:11;100551.69;;;7.36;90.31
43683;BME280;29285;52.128;21.060;2022-11-15T03:21:39;100540.47;;;7.33;90.19
43683;BME280;29285;52.128;21.060;2022-11-15T03:26:43;100538.73;;;7.35;90.24
43683;BME280;29285;52.128;21.060;2022-11-15T03:31:52;100537.02;;;7.29;90.20
43683;BME280;29285;52.128;21.060;2022-11-15T03:36:56;100532.28;;;7.32;90.15
43683;BME280;29285;52.128;21.060;2022-11-15T03:47:29;100512.41;;;7.49;90.40
43683;BME280;29285;52.128;21.060;2022-11-15T03:52:33;100499.92;;;7.41;90.34
43683;BME280;29285;52.128;21.060;2022-11-15T03:57:35;100499.05;;;7.51;90.46
43683;BME280;29285;52.128;21.060;2022-11-15T04:02:36;100499.05;;;7.61;90.61
43683;BME280;29285;52.128;21.060;2022-11-15T04:07:38;100484.36;;;7.53;90.56
43683;BME280;29285;52.128;21.060;2022-11-15T04:12:42;100481.77;;;7.53;90.50
43683;BME280;29285;52.128;21.060;2022-11-15T04:17:50;100471.44;;;7.50;90.43
43683;BME280;29285;52.128;21.060;2022-11-15T04:22:53;100461.93;;;7.55;90.42
43683;BME280;29285;52.128;21.060;2022-11-15T04:28:14;100469.69;;;7.52;90.44
43683;BME280;29285;52.128;21.060;2022-11-15T04:33:15;100461.93;;;7.55;90.43
43683;BME280;29285;52.128;21.060;2022-11-15T04:38:16;100455.45;;;7.54;90.43
43683;BME280;29285;52.128;21.060;2022-11-15T04:43:18;100446.83;;;7.50;90.37
43683;BME280;29285;52.128;21.060;2022-11-15T04:48:19;100445.08;;;7.60;90.41
43683;BME280;29285;52.128;21.060;2022-11-15T04:53:20;100447.69;;;7.54;90.43
43683;BME280;29285;52.128;21.060;2022-11-15T04:58:21;100439.48;;;7.51;90.33
43683;BME280;29285;52.128;21.060;2022-11-15T05:03:22;100444.68;;;7.33;90.15
43683;BME280;29285;52.128;21.060;2022-11-15T05:08:42;100445.98;;;6.86;89.59
43683;BME280;29285;52.128;21.060;2022-11-15T05:13:44;100442.04;;;6.58;89.29
43683;BME280;29285;52.128;21.060;2022-11-15T05:18:45;100446.79;;;6.63;89.38
43683;BME280;29285;52.128;21.060;2022-11-15T05:23:46;100437.33;;;6.59;89.54
43683;BME280;29285;52.128;21.060;2022-11-15T05:28:56;100431.19;;;6.26;89.35
43683;BME280;29285;52.128;21.060;2022-11-15T05:33:59;100437.10;;;6.01;89.23
43683;BME280;29285;52.128;21.060;2022-11-15T05:39:03;100428.91;;;5.99;89.33
43683;BME280;29285;52.128;21.060;2022-11-15T05:44:07;100438.88;;;6.13;89.72
43683;BME280;29285;52.128;21.060;2022-11-15T05:49:13;100437.91;;;5.94;89.78
43683;BME280;29285;52.128;21.060;2022-11-15T05:54:16;100436.13;;;5.79;89.78
43683;BME280;29285;52.128;21.060;2022-11-15T05:59:18;100423.19;;;5.76;89.91
43683;BME280;29285;52.128;21.060;2022-11-15T06:04:20;100426.69;;;5.87;90.21
43683;BME280;29285;52.128;21.060;2022-11-15T06:09:21;100419.78;;;5.85;90.37
43683;BME280;29285;52.128;21.060;2022-11-15T06:14:23;100428.90;;;5.97;90.65
43683;BME280;29285;52.128;21.060;2022-11-15T06:19:24;100431.10;;;6.05;90.88
43683;BME280;29285;52.128;21.060;2022-11-15T06:24:25;100428.08;;;6.03;90.98
43683;BME280;29285;52.128;21.060;2022-11-15T06:29:27;100434.87;;;5.85;90.94
43683;BME280;29285;52.128;21.060;2022-11-15T06:34:28;100432.14;;;5.60;90.79
43683;BME280;29285;52.128;21.060;2022-11-15T06:39:29;100433.84;;;5.55;90.81
43683;BME280;29285;52.128;21.060;2022-11-15T06:44:30;100438.59;;;5.55;90.96
43683;BME280;29285;52.128;21.060;2022-11-15T06:49:32;100436.56;;;5.80;91.36
43683;BME280;29285;52.128;21.060;2022-11-15T06:54:33;100437.83;;;5.77;91.55
43683;BME280;29285;52.128;21.060;2022-11-15T06:59:34;100442.06;;;5.61;91.52
43683;BME280;29285;52.128;21.060;2022-11-15T07:04:35;100441.98;;;5.50;91.55
43683;BME280;29285;52.128;21.060;2022-11-15T07:09:36;100439.36;;;5.47;91.63
43683;BME280;29285;52.128;21.060;2022-11-15T07:14:38;100445.02;;;5.54;91.82
43683;BME280;29285;52.128;21.060;2022-11-15T07:19:39;100444.28;;;5.74;92.14
43683;BME280;29285;52.128;21.060;2022-11-15T07:24:40;100442.95;;;5.66;92.19
43683;BME280;29285;52.128;21.060;2022-11-15T07:29:42;100442.03;;;5.58;92.18
43683;BME280;29285;52.128;21.060;2022-11-15T07:34:43;100442.50;;;5.63;92.28
43683;BME280;29285;52.128;21.060;2022-11-15T07:39:46;100443.36;;;5.65;92.39
43683;BME280;29285;52.128;21.060;2022-11-15T07:44:47;100438.11;;;5.50;92.33
43683;BME280;29285;52.128;21.060;2022-11-15T07:49:48;100442.79;;;5.44;92.33
43683;BME280;29285;52.128;21.060;2022-11-15T07:54:50;100436.02;;;5.60;92.57
43683;BME280;29285;52.128;21.060;2022-11-15T07:59:51;100434.75;;;5.62;92.68
43683;BME280;29285;52.128;21.060;2022-11-15T08:04:52;100418.80;;;5.58;92.69
43683;BME280;29285;52.128;21.060;2022-11-15T08:09:53;100414.96;;;5.65;92.83
43683;BME280;29285;52.128;21.060;2022-11-15T08:14:56;100405.95;;;5.72;92.96
43683;BME280;29285;52.128;21.060;2022-11-15T08:19:57;100401.25;;;5.77;93.05
43683;BME280;29285;52.128;21.060;2022-11-15T08:24:58;100398.62;;;5.73;93.06
43683;BME280;29285;52.128;21.060;2022-11-15T08:30:00;100392.47;;;5.42;92.82
43683;BME280;29285;52.128;21.060;2022-11-15T08:35:03;100397.17;;;5.41;92.77
43683;BME280;29285;52.128;21.060;2022-11-15T08:40:06;100379.52;;;5.38;92.84
43683;BME280;29285;52.128;21.060;2022-11-15T08:45:08;100383.78;;;5.28;92.82
43683;BME280;29285;52.128;21.060;2022-11-15T08:50:10;100385.96;;;5.33;92.96
43683;BME280;29285;52.128;21.060;2022-11-15T08:55:11;100376.05;;;5.33;93.07
43683;BME280;29285;52.128;21.060;2022-11-15T09:00:13;100372.22;;;5.40;93.21
43683;BME280;29285;52.128;21.060;2022-11-15T09:05:15;100384.30;;;5.45;93.33
43683;BME280;29285;52.128;21.060;2022-11-15T09:10:17;100379.63;;;5.60;93.54
43683;BME280;29285;52.128;21.060;2022-11-15T09:15:18;100376.70;;;5.71;93.75
43683;BME280;29285;52.128;21.060;2022-11-15T09:20:20;100363.84;;;5.85;93.89
43683;BME280;29285;52.128;21.060;2022-11-15T09:25:21;100353.12;;;5.93;94.07
43683;BME280;29285;52.128;21.060;2022-11-15T09:30:24;100351.41;;;5.97;94.10
43683;BME280;29285;52.128;21.060;2022-11-15T09:35:25;100347.95;;;5.93;94.01
43683;BME280;29285;52.128;21.060;2022-11-15T09:40:27;100345.41;;;6.03;94.05
43683;BME280;29285;52.128;21.060;2022-11-15T09:51:34;100327.36;;;6.21;94.31
43683;BME280;29285;52.128;21.060;2022-11-15T09:56:50;100318.73;;;6.04;94.07
43683;BME280;29285;52.128;21.060;2022-11-15T10:02:14;100318.77;;;6.32;94.31
43683;BME280;29285;52.128;21.060;2022-11-15T10:07:40;100307.16;;;6.37;94.42
43683;BME280;29285;52.128;21.060;2022-11-15T10:12:47;100300.66;;;6.22;94.32
43683;BME280;29285;52.128;21.060;2022-11-15T10:18:06;100295.48;;;6.22;94.30
43683;BME280;29285;52.128;21.060;2022-11-15T10:23:11;100295.06;;;6.21;94.23
43683;BME280;29285;52.128;21.060;2022-11-15T10:28:26;100289.02;;;6.08;94.09
43683;BME280;29285;52.128;21.060;2022-11-15T10:33:33;100295.91;;;6.17;94.13
43683;BME280;29285;52.128;21.060;2022-11-15T10:38:52;100288.17;;;6.19;94.18
43683;BME280;29285;52.128;21.060;2022-11-15T10:49:26;100278.27;;;6.53;94.62
43683;BME280;29285;52.128;21.060;2022-11-15T10:54:40;100270.94;;;6.54;94.66
43683;BME280;29285;52.128;21.060;2022-11-15T10:59:51;100261.90;;;6.38;94.45
43683;BME280;29285;52.128;21.060;2022-11-15T11:04:54;100261.48;;;6.31;94.29
43683;BME280;29285;52.128;21.060;2022-11-15T11:10:01;100256.73;;;6.30;94.30
43683;BME280;29285;52.128;21.060;2022-11-15T11:15:11;100248.99;;;6.27;94.27
43683;BME280;29285;52.128;21.060;2022-11-15T11:20:33;100241.24;;;6.29;94.32
43683;BME280;29285;52.128;21.060;2022-11-15T11:26:17;100248.56;;;6.42;94.49
43683;BME280;29285;52.128;21.060;2022-11-15T11:31:24;100239.50;;;6.57;94.67
43683;BME280;29285;52.128;21.060;2022-11-15T11:36:54;100237.30;;;6.80;94.99
43683;BME280;29285;52.128;21.060;2022-11-15T11:41:56;100227.80;;;6.90;95.16
43683;BME280;29285;52.128;21.060;2022-11-15T11:52:17;100204.38;;;7.26;95.50
43683;BME280;29285;52.128;21.060;2022-11-15T11:57:49;100206.55;;;7.22;95.45
43683;BME280;29285;52.128;21.060;2022-11-15T12:08:45;100186.13;;;7.54;95.65
43683;BME280;29285;52.128;21.060;2022-11-15T12:13:58;100184.88;;;7.43;95.51
43683;BME280;29285;52.128;21.060;2022-11-15T12:19:02;100177.98;;;7.39;95.25
43683;BME280;29285;52.128;21.060;2022-11-15T12:24:17;100169.70;;;7.57;95.36
43683;BME280;29285;52.128;21.060;2022-11-15T12:29:35;100168.72;;;7.73;95.50
43683;BME280;29285;52.128;21.060;2022-11-15T12:34:41;100170.01;;;7.76;95.54
43683;BME280;29285;52.128;21.060;2022-11-15T12:50:55;100156.19;;;7.74;95.20
43683;BME280;29285;52.128;21.060;2022-11-15T13:06:42;100133.77;;;7.70;94.96
43683;BME280;29285;52.128;21.060;2022-11-15T13:11:50;100139.74;;;7.83;95.04
43683;BME280;29285;52.128;21.060;2022-11-15T13:16:58;100128.84;;;7.94;95.15
43683;BME280;29285;52.128;21.060;2022-11-15T13:22:04;100136.61;;;7.96;95.20
43683;BME280;29285;52.128;21.060;2022-11-15T13:27:25;100138.74;;;7.98;95.13
43683;BME280;29285;52.128;21.060;2022-11-15T13:32:27;100133.98;;;7.99;95.08
43683;BME280;29285;52.128;21.060;2022-11-15T13:37:29;100114.55;;;7.98;94.97
43683;BME280;29285;52.128;21.060;2022-11-15T13:42:31;100118.82;;;8.05;94.96
43683;BME280;29285;52.128;21.060;2022-11-15T13:47:32;100117.39;;;8.19;95.09
43683;BME280;29285;52.128;21.060;2022-11-15T13:52:36;100099.17;;;8.25;95.16
43683;BME280;29285;52.128;21.060;2022-11-15T13:57:42;100091.86;;;8.23;95.10
43683;BME280;29285;52.128;21.060;2022-11-15T14:02:45;100103.95;;;8.23;95.00
43683;BME280;29285;52.128;21.060;2022-11-15T14:08:12;100098.89;;;8.12;94.82
43683;BME280;29285;52.128;21.060;2022-11-15T14:13:29;100099.80;;;8.07;94.67
43683;BME280;29285;52.128;21.060;2022-11-15T14:18:49;100104.09;;;8.08;94.63
43683;BME280;29285;52.128;21.060;2022-11-15T14:23:52;100097.68;;;8.02;94.50
43683;BME280;29285;52.128;21.060;2022-11-15T14:28:53;100089.91;;;8.02;94.43
43683;BME280;29285;52.128;21.060;2022-11-15T14:33:54;100084.72;;;8.04;94.40
43683;BME280;29285;52.128;21.060;2022-11-15T14:38:55;100080.86;;;7.98;94.28
43683;BME280;29285;52.128;21.060;2022-11-15T14:43:56;100075.67;;;7.98;94.20
43683;BME280;29285;52.128;21.060;2022-11-15T14:48:57;100078.26;;;7.99;94.19
43683;BME280;29285;52.128;21.060;2022-11-15T14:53:59;100079.95;;;8.03;94.20
43683;BME280;29285;52.128;21.060;2022-11-15T14:59:00;100082.05;;;8.12;94.29
43683;BME280;29285;52.128;21.060;2022-11-15T15:04:01;100086.69;;;8.21;94.45
43683;BME280;29285;52.128;21.060;2022-11-15T15:09:03;100081.88;;;8.27;94.53
43683;BME280;29285;52.128;21.060;2022-11-15T15:14:04;100079.23;;;8.30;94.57
43683;BME280;29285;52.128;21.060;2022-11-15T15:19:05;100072.33;;;8.32;94.58
43683;BME280;29285;52.128;21.060;2022-11-15T15:24:13;100079.70;;;8.28;94.46
43683;BME280;29285;52.128;21.060;2022-11-15T15:29:15;100063.34;;;8.23;94.34
43683;BME280;29285;52.128;21.060;2022-11-15T15:34:16;100067.73;;;8.15;94.18
43683;BME280;29285;52.128;21.060;2022-11-15T15:39:18;100061.27;;;8.13;94.05
43683;BME280;29285;52.128;21.060;2022-11-15T15:44:19;100066.84;;;8.19;94.09
43683;BME280;29285;52.128;21.060;2022-11-15T15:49:20;100069.84;;;8.20;94.06
43683;BME280;29285;52.128;21.060;2022-11-15T15:54:21;100059.45;;;8.23;94.06
43683;BME280;29285;52.128;21.060;2022-11-15T15:59:23;100055.08;;;8.28;94.05
43683;BME280;29285;52.128;21.060;2022-11-15T16:04:24;100052.46;;;8.31;94.07
43683;BME280;29285;52.128;21.060;2022-11-15T16:09:30;100038.20;;;8.31;94.00
43683;BME280;29285;52.128;21.060;2022-11-15T16:14:50;100045.91;;;8.36;93.99
43683;BME280;29285;52.128;21.060;2022-11-15T16:19:51;100040.27;;;8.38;93.98
43683;BME280;29285;52.128;21.060;2022-11-15T16:24:52;100039.01;;;8.37;93.95
43683;BME280;29285;52.128;21.060;2022-11-15T16:29:54;100044.19;;;8.37;93.87
43683;BME280;29285;52.128;21.060;2022-11-15T16:34:55;100031.64;;;8.38;93.83
43683;BME280;29285;52.128;21.060;2022-11-15T16:39:58;100042.42;;;8.39;93.83
43683;BME280;29285;52.128;21.060;2022-11-15T16:44:59;100048.98;;;8.32;93.74
43683;BME280;29285;52.128;21.060;2022-11-15T16:50:00;100046.90;;;8.26;93.62
43683;BME280;29285;52.128;21.060;2022-11-15T16:55:02;100053.89;;;8.17;93.51
43683;BME280;29285;52.128;21.060;2022-11-15T17:00:04;100056.48;;;8.17;93.42
43683;BME280;29285;52.128;21.060;2022-11-15T17:05:07;100044.41;;;8.15;93.36
43683;BME280;29285;52.128;21.060;2022-11-15T17:10:10;100043.53;;;8.16;93.33
43683;BME280;29285;52.128;21.060;2022-11-15T17:15:12;100037.52;;;8.14;93.31
43683;BME280;29285;52.128;21.060;2022-11-15T17:20:15;100034.05;;;8.15;93.28
43683;BME280;29285;52.128;21.060;2022-11-15T17:25:17;100034.51;;;8.13;93.24
43683;BME280;29285;52.128;21.060;2022-11-15T17:30:19;100031.52;;;8.10;93.21
43683;BME280;29285;52.128;21.060;2022-11-15T17:35:20;100028.05;;;8.10;93.20
43683;BME280;29285;52.128;21.060;2022-11-15T17:40:21;100025.52;;;8.05;93.10
43683;BME280;29285;52.128;21.060;2022-11-15T17:45:23;100019.47;;;8.04;93.04
43683;BME280;29285;52.128;21.060;2022-11-15T17:50:24;100029.91;;;7.98;92.90
43683;BME280;29285;52.128;21.060;2022-11-15T17:55:25;100026.52;;;7.90;92.74
43683;BME280;29285;52.128;21.060;2022-11-15T18:00:27;100018.90;;;7.74;92.51
43683;BME280;29285;52.128;21.060;2022-11-15T18:05:28;100018.09;;;7.67;92.35
43683;BME280;29285;52.128;21.060;2022-11-15T18:10:29;100012.89;;;7.71;92.41
43683;BME280;29285;52.128;21.060;2022-11-15T18:15:30;100011.18;;;7.71;92.52
43683;BME280;29285;52.128;21.060;2022-11-15T18:20:32;100005.53;;;7.73;92.62
43683;BME280;29285;52.128;21.060;2022-11-15T18:25:33;100011.69;;;7.60;92.51
43683;BME280;29285;52.128;21.060;2022-11-15T18:30:37;100005.67;;;7.58;92.43
43683;BME280;29285;52.128;21.060;2022-11-15T18:35:38;100012.20;;;7.53;92.41
43683;BME280;29285;52.128;21.060;2022-11-15T18:40:39;100002.27;;;7.52;92.35
43683;BME280;29285;52.128;21.060;2022-11-15T18:45:41;100008.27;;;7.56;92.40
43683;BME280;29285;52.128;21.060;2022-11-15T18:50:42;100011.33;;;7.54;92.42
43683;BME280;29285;52.128;21.060;2022-11-15T18:55:43;100011.33;;;7.52;92.44
43683;BME280;29285;52.128;21.060;2022-11-15T19:00:45;100016.52;;;7.52;92.44
43683;BME280;29285;52.128;21.060;2022-11-15T19:05:46;100018.21;;;7.57;92.55
43683;BME280;29285;52.128;21.060;2022-11-15T19:10:47;100016.03;;;7.58;92.58
43683;BME280;29285;52.128;21.060;2022-11-15T19:15:55;100014.68;;;7.64;92.63
43683;BME280;29285;52.128;21.060;2022-11-15T19:21:05;100006.03;;;7.65;92.68
43683;BME280;29285;52.128;21.060;2022-11-15T19:26:12;100000.91;;;7.59;92.62
43683;BME280;29285;52.128;21.060;2022-11-15T19:31:15;100007.86;;;7.53;92.51
43683;BME280;29285;52.128;21.060;2022-11-15T19:36:22;100004.39;;;7.56;92.51
43683;BME280;29285;52.128;21.060;2022-11-15T19:41:28;99997.99;;;7.47;92.42
43683;BME280;29285;52.128;21.060;2022-11-15T19:46:29;99999.81;;;7.37;92.29
43683;BME280;29285;52.128;21.060;2022-11-15T19:51:30;100003.28;;;7.34;92.24
43683;BME280;29285;52.128;21.060;2022-11-15T19:56:32;100005.45;;;7.33;92.24
43683;BME280;29285;52.128;21.060;2022-11-15T20:01:35;99995.93;;;7.37;92.31
43683;BME280;29285;52.128;21.060;2022-11-15T20:06:40;99985.52;;;7.43;92.43
43683;BME280;29285;52.128;21.060;2022-11-15T20:11:43;99982.98;;;7.37;92.41
43683;BME280;29285;52.128;21.060;2022-11-15T20:16:44;99974.39;;;7.33;92.32
43683;BME280;29285;52.128;21.060;2022-11-15T20:21:45;99980.89;;;7.28;92.26
43683;BME280;29285;52.128;21.060;2022-11-15T20:26:47;99982.66;;;7.23;92.14
43683;BME280;29285;52.128;21.060;2022-11-15T20:31:48;99978.35;;;7.24;92.13
43683;BME280;29285;52.128;21.060;2022-11-15T20:36:49;99977.42;;;7.29;92.21
43683;BME280;29285;52.128;21.060;2022-11-15T20:41:50;99977.88;;;7.27;92.25
43683;BME280;29285;52.128;21.060;2022-11-15T20:46:51;99980.41;;;7.35;92.33
43683;BME280;29285;52.128;21.060;2022-11-15T20:51:53;99986.41;;;7.40;92.44
43683;BME280;29285;52.128;21.060;2022-11-15T20:56:54;99985.16;;;7.36;92.41
43683;BME280;29285;52.128;21.060;2022-11-15T21:01:55;99977.83;;;7.32;92.29
43683;BME280;29285;52.128;21.060;2022-11-15T21:06:56;99984.77;;;7.28;92.17
43683;BME280;29285;52.128;21.060;2022-11-15T21:12:00;99972.70;;;7.27;92.16
43683;BME280;29285;52.128;21.060;2022-11-15T21:17:14;99974.48;;;7.21;92.06
43683;BME280;29285;52.128;21.060;2022-11-15T21:22:16;99968.06;;;7.16;91.96
43683;BME280;29285;52.128;21.060;2022-11-15T21:27:17;99971.89;;;7.19;91.99
43683;BME280;29285;52.128;21.060;2022-11-15T21:32:19;99971.06;;;7.17;91.96
43683;BME280;29285;52.128;21.060;2022-11-15T21:37:20;99967.19;;;7.17;91.99
43683;BME280;29285;52.128;21.060;2022-11-15T21:42:21;99966.41;;;7.07;91.90
43683;BME280;29285;52.128;21.060;2022-11-15T21:47:22;99958.19;;;7.08;91.85
43683;BME280;29285;52.128;21.060;2022-11-15T21:52:24;99953.41;;;7.15;91.95
43683;BME280;29285;52.128;21.060;2022-11-15T21:57:25;99953.41;;;7.15;91.99
43683;BME280;29285;52.128;21.060;2022-11-15T22:02:28;99942.66;;;7.08;91.91
43683;BME280;29285;52.128;21.060;2022-11-15T22:07:29;99939.65;;;7.10;91.86
43683;BME280;29285;52.128;21.060;2022-11-15T22:12:30;99922.37;;;7.12;91.91
43683;BME280;29285;52.128;21.060;2022-11-15T22:17:31;99908.97;;;7.14;91.97
43683;BME280;29285;52.128;21.060;2022-11-15T22:22:51;99906.86;;;7.09;91.93
43683;BME280;29285;52.128;21.060;2022-11-15T22:27:53;99906.43;;;7.09;91.90
43683;BME280;29285;52.128;21.060;2022-11-15T22:32:54;99894.36;;;7.10;91.92
43683;BME280;29285;52.128;21.060;2022-11-15T22:37:56;99892.59;;;7.15;91.95
43683;BME280;29285;52.128;21.060;2022-11-15T22:42:57;99880.88;;;7.23;92.04
43683;BME280;29285;52.128;21.060;2022-11-15T22:47:59;99880.80;;;7.31;92.17
43683;BME280;29285;52.128;21.060;2022-11-15T22:53:00;99886.31;;;7.39;92.25
43683;BME280;29285;52.128;21.060;2022-11-15T22:58:01;99882.05;;;7.32;92.22
43683;BME280;29285;52.128;21.060;2022-11-15T23:03:03;99879.87;;;7.35;92.15
43683;BME280;29285;52.128;21.060;2022-11-15T23:08:04;99871.28;;;7.33;92.10
43683;BME280;29285;52.128;21.060;2022-11-15T23:13:09;99864.82;;;7.29;92.00
43683;BME280;29285;52.128;21.060;2022-11-15T23:18:18;99860.92;;;7.33;92.00
43683;BME280;29285;52.128;21.060;2022-11-15T23:23:20;99850.56;;;7.33;92.01
43683;BME280;29285;52.128;21.060;2022-11-15T23:28:21;99849.27;;;7.33;92.00
43683;BME280;29285;52.128;21.060;2022-11-15T23:33:22;99859.64;;;7.29;91.97
43683;BME280;29285;52.128;21.060;2022-11-15T23:38:42;99868.27;;;7.33;91.96
43683;BME280;29285;52.128;21.060;2022-11-15T23:43:43;99866.52;;;7.34;92.01
43683;BME280;29285;52.128;21.060;2022-11-15T23:48:45;99859.23;;;7.28;91.96
43683;BME280;29285;52.128;21.060;2022-11-15T23:53:47;99859.70;;;7.26;91.92
43683;BME280;29285;52.128;21.060;2022-11-15T23:58:48;99852.28;;;7.32;92.01
